Time;durP1;ratioP1;P1;durP2;ratioP2;P2;SDS_P1;SDS_P2;PMS_P1;PMS_P2;Temp;Humidity;BMP_temperature;BMP_pressure;BME280_temperature;BME280_humidity;BME280_pressure;Samples;Min_cycle;Max_cycle;Signal;HPM_P1;HPM_P2
2020/12/18 00:00:18;;;;;;;11.80;3.47;;;8.80;99.90;;;;;;5118909;28;20023;-68
2020/12/18 00:02:43;;;;;;;;;;;8.80;99.90;;;;;;5120556;28;20029;-68
2020/12/18 00:05:09;;;;;;;3.28;2.00;;;8.70;99.90;;;;;;5120222;28;19904;-68
2020/12/18 00:07:35;;;;;;;;;;;8.70;99.90;;;;;;5120414;28;20027;-68
2020/12/18 00:10:00;;;;;;;20.55;3.85;;;8.60;99.90;;;;;;5120001;27;19914;-68
2020/12/18 00:12:26;;;;;;;;;;;8.70;99.90;;;;;;5120098;28;20020;-68
2020/12/18 00:14:52;;;;;;;13.48;3.45;;;8.70;99.90;;;;;;5119862;28;19904;-68
2020/12/18 00:17:17;;;;;;;;;;;8.40;99.90;;;;;;5118859;28;20019;-68
2020/12/18 00:19:43;;;;;;;18.98;3.97;;;8.40;99.90;;;;;;5119687;28;20302;-68
2020/12/18 00:22:09;;;;;;;;;;;8.50;99.90;;;;;;5126687;27;20479;-68
2020/12/18 00:24:35;;;;;;;10.57;3.17;;;8.50;99.90;;;;;;5119812;28;19907;-68
2020/12/18 00:27:02;;;;;;;14.40;3.70;;;8.50;99.90;;;;;;5118046;28;20061;-68
2020/12/18 00:29:27;;;;;;;13.77;3.70;;;8.50;99.90;;;;;;5119399;28;20024;-68
2020/12/18 00:31:53;;;;;;;;;;;8.50;99.90;;;;;;5118595;28;20030;-68
2020/12/18 00:34:19;;;;;;;9.00;3.10;;;8.50;99.90;;;;;;5119891;28;19904;-68
2020/12/18 00:36:49;;;;;;;;;;;8.30;99.90;;;;;;5119823;28;20098;-68
2020/12/18 00:39:15;;;;;;;14.20;3.33;;;8.30;99.90;;;;;;5119473;27;19951;-68
2020/12/18 00:41:40;;;;;;;;;;;8.40;99.90;;;;;;5119706;28;20050;-68
2020/12/18 00:44:06;;;;;;;12.32;2.53;;;8.40;99.90;;;;;;5117784;28;19907;-67
2020/12/18 00:46:32;;;;;;;;;;;8.60;99.90;;;;;;5119716;28;20027;-68
2020/12/18 00:48:58;;;;;;;18.88;3.38;;;8.40;99.90;;;;;;5119317;28;19908;-68
2020/12/18 00:51:23;;;;;;;;;;;8.30;99.90;;;;;;5119553;28;20027;-68
2020/12/18 00:53:49;;;;;;;12.88;3.45;;;8.50;99.90;;;;;;5119487;28;19992;-68
2020/12/18 00:56:15;;;;;;;;;;;8.40;99.90;;;;;;5119553;28;20027;-68
2020/12/18 00:58:44;;;;;;;11.70;2.63;;;8.60;99.90;;;;;;5118923;28;19904;-67
2020/12/18 01:01:10;;;;;;;9.27;2.85;;;8.60;99.90;;;;;;5119193;28;20031;-68
2020/12/18 01:03:36;;;;;;;16.15;3.30;;;8.50;99.90;;;;;;5118959;28;20522;-68
2020/12/18 01:06:05;;;;;;;;;;;8.60;99.90;;;;;;5119736;28;20054;-68
2020/12/18 01:08:31;;;;;;;8.05;2.20;;;8.60;99.90;;;;;;5118687;28;19908;-68
2020/12/18 01:11:00;;;;;;;;;;;8.60;99.90;;;;;;5119454;28;20069;-68
2020/12/18 01:13:26;;;;;;;12.10;2.92;;;8.50;99.90;;;;;;5118340;28;20371;-68
2020/12/18 01:15:51;;;;;;;;;;;8.70;99.90;;;;;;5119577;28;20103;-68
2020/12/18 01:18:17;;;;;;;11.48;2.33;;;8.60;99.90;;;;;;5118501;28;19923;-68
2020/12/18 01:20:43;;;;;;;15.52;3.10;;;8.80;99.90;;;;;;5117542;27;20030;-68
2020/12/18 01:23:09;;;;;;;9.05;3.15;;;8.80;99.90;;;;;;5110440;27;20024;-68
2020/12/18 01:25:34;;;;;;;;;;;8.80;99.90;;;;;;5099099;28;20050;-68
2020/12/18 01:28:00;;;;;;;13.85;2.35;;;8.90;99.90;;;;;;5097853;28;19911;-68
2020/12/18 01:30:26;;;;;;;5.72;2.25;;;8.90;99.90;;;;;;5098241;28;20050;-68
2020/12/18 01:32:51;;;;;;;;;;;9.10;99.90;;;;;;5098622;28;20530;-68
2020/12/18 01:35:17;;;;;;;7.47;2.08;;;9.20;99.90;;;;;;5098107;28;19910;-68
2020/12/18 01:37:43;;;;;;;;;;;9.10;99.90;;;;;;5098500;28;20095;-68
2020/12/18 01:40:09;;;;;;;13.57;2.70;;;9.30;99.90;;;;;;5097834;28;19960;-68
2020/12/18 01:42:34;;;;;;;;;;;9.20;99.90;;;;;;5097970;28;20098;-68
2020/12/18 01:45:00;;;;;;;6.10;2.30;;;9.20;99.90;;;;;;5097928;28;20452;-68
2020/12/18 01:47:29;;;;;;;;;;;9.10;99.90;;;;;;5098326;28;20076;-68
2020/12/18 01:49:56;;;;;;;7.93;2.55;;;9.20;99.90;;;;;;5097918;28;19908;-68
2020/12/18 01:52:26;;;;;;;8.88;2.65;;;9.30;99.90;;;;;;5097800;28;20016;-68
2020/12/18 01:54:58;;;;;;;13.95;3.70;;;9.20;99.90;;;;;;5097872;28;20073;-68
2020/12/18 01:57:24;;;;;;;18.20;3.22;;;9.20;99.90;;;;;;5097403;28;20051;-68
2020/12/18 01:59:52;;;;;;;7.95;3.17;;;9.40;99.90;;;;;;5097647;28;20036;-68
2020/12/18 02:02:18;;;;;;;16.17;2.97;;;9.50;99.90;;;;;;5097730;28;20462;-68
2020/12/18 02:04:44;;;;;;;;;;;9.40;99.90;;;;;;5098171;28;20075;-68
2020/12/18 02:07:12;;;;;;;10.10;1.83;;;9.60;99.90;;;;;;5096265;28;19908;-68
2020/12/18 02:09:38;;;;;;;12.60;3.00;;;9.60;99.90;;;;;;5097442;28;20510;-68
2020/12/18 02:12:05;;;;;;;9.45;2.70;;;9.50;99.90;;;;;;5095872;28;20035;-68
2020/12/18 02:14:30;;;;;;;8.10;2.67;;;9.70;99.90;;;;;;5097463;28;20016;-68
2020/12/18 02:16:56;;;;;;;;;;;9.60;99.90;;;;;;5113955;28;20031;-68
2020/12/18 02:19:27;;;;;;;8.23;2.50;;;9.60;99.90;;;;;;5117732;28;19916;-68
2020/12/18 02:21:53;;;;;;;11.63;2.53;;;9.60;99.90;;;;;;5124843;28;20048;-68
2020/12/18 02:24:25;;;;;;;;;;;9.60;99.90;;;;;;5118390;28;20081;-68
2020/12/18 02:26:51;;;;;;;20.98;3.92;;;9.60;99.90;;;;;;5117427;28;19910;-68
2020/12/18 02:29:17;;;;;;;16.52;2.38;;;9.70;99.90;;;;;;5117569;28;20479;-68
2020/12/18 02:31:42;;;;;;;;;;;9.60;99.90;;;;;;5116638;28;20474;-68
2020/12/18 02:34:08;;;;;;;14.75;2.70;;;9.60;99.90;;;;;;5117818;28;19903;-68
2020/12/18 02:36:34;;;;;;;;;;;9.50;99.90;;;;;;5118039;28;20047;-68
2020/12/18 02:39:00;;;;;;;6.97;1.92;;;9.50;99.90;;;;;;5117796;28;20390;-68
2020/12/18 02:41:26;;;;;;;11.93;3.08;;;9.40;99.90;;;;;;5117490;28;20023;-68
2020/12/18 02:43:52;;;;;;;;;;;9.60;99.90;;;;;;5117776;28;20501;-68
2020/12/18 02:46:18;;;;;;;12.07;3.65;;;9.30;99.90;;;;;;5117896;28;19910;-68
2020/12/18 02:48:45;;;;;;;11.57;2.40;;;9.60;99.90;;;;;;5117383;28;20471;-68
2020/12/18 02:51:11;;;;;;;10.27;2.60;;;9.50;99.90;;;;;;5119129;28;20016;-68
2020/12/18 02:53:37;;;;;;;10.75;3.00;;;9.50;99.90;;;;;;5121639;28;20031;-68
2020/12/18 02:56:02;;;;;;;;;;;9.50;99.90;;;;;;5121774;28;20083;-68
2020/12/18 02:58:28;;;;;;;9.27;2.72;;;9.50;99.90;;;;;;5121205;28;20428;-68
2020/12/18 03:00:54;;;;;;;;;;;9.50;99.90;;;;;;5121756;28;20028;-68
2020/12/18 03:03:19;;;;;;;9.63;2.42;;;9.60;99.90;;;;;;5121382;28;19904;-68
2020/12/18 03:05:45;;;;;;;9.30;2.80;;;9.60;99.90;;;;;;5121207;28;20032;-68
2020/12/18 03:08:11;;;;;;;11.60;2.58;;;9.60;99.90;;;;;;5121225;27;20152;-68
2020/12/18 03:10:37;;;;;;;;;;;9.50;99.90;;;;;;5121574;28;20026;-68
2020/12/18 03:13:03;;;;;;;6.07;1.98;;;9.60;99.90;;;;;;5120856;28;20284;-68
2020/12/18 03:15:28;;;;;;;;;;;9.60;99.90;;;;;;5121429;27;20489;-68
2020/12/18 03:17:54;;;;;;;7.88;2.45;;;9.50;99.90;;;;;;5120941;28;20428;-68
2020/12/18 03:20:19;;;;;;;;;;;9.50;99.90;;;;;;5121335;28;20019;-68
2020/12/18 03:22:46;;;;;;;8.40;2.05;;;9.50;99.90;;;;;;5127747;27;20303;-68
2020/12/18 03:25:12;;;;;;;11.70;2.20;;;9.70;99.90;;;;;;5121025;28;20023;-68
2020/12/18 03:27:38;;;;;;;11.05;2.85;;;9.60;99.90;;;;;;5120623;28;20031;-68
2020/12/18 03:30:04;;;;;;;;;;;9.50;99.90;;;;;;5121154;28;20020;-68
2020/12/18 03:32:30;;;;;;;8.10;1.55;;;9.70;99.90;;;;;;5120897;28;19996;-68
2020/12/18 03:34:55;;;;;;;11.95;3.47;;;9.70;99.90;;;;;;5120624;28;20313;-68
2020/12/18 03:37:21;;;;;;;10.85;3.00;;;9.70;99.90;;;;;;5121020;27;20023;-68
2020/12/18 03:39:47;;;;;;;;;;;9.80;99.90;;;;;;5120972;28;20070;-68
2020/12/18 03:42:13;;;;;;;14.35;2.40;;;9.90;99.90;;;;;;5120417;28;19998;-68
2020/12/18 03:44:39;;;;;;;4.35;1.90;;;9.90;99.90;;;;;;5120268;28;20031;-68
2020/12/18 03:47:04;;;;;;;;;;;10.00;99.90;;;;;;5120990;28;20027;-68
2020/12/18 03:49:30;;;;;;;13.95;2.45;;;9.90;99.90;;;;;;5120265;28;19907;-68
2020/12/18 03:51:56;;;;;;;6.57;2.13;;;9.90;99.90;;;;;;5120446;28;20027;-68
2020/12/18 03:54:23;;;;;;;;;;;9.90;99.90;;;;;;5120710;28;20020;-68
2020/12/18 03:56:48;;;;;;;11.45;2.63;;;9.90;99.90;;;;;;5120280;28;20018;-68
2020/12/18 03:59:14;;;;;;;14.82;2.20;;;9.90;99.90;;;;;;5120114;28;20075;-68
2020/12/18 04:01:40;;;;;;;;;;;9.90;99.90;;;;;;5120518;28;20050;-68
2020/12/18 04:04:06;;;;;;;13.30;2.72;;;10.00;99.90;;;;;;5118777;28;19904;-68
2020/12/18 04:06:31;;;;;;;;;;;10.00;99.90;;;;;;5121079;28;20077;-68
2020/12/18 04:08:57;;;;;;;9.65;2.22;;;10.00;99.90;;;;;;5119932;28;19908;-68
2020/12/18 04:11:23;;;;;;;;;;;10.10;99.90;;;;;;5120670;28;20083;-68
2020/12/18 04:13:48;;;;;;;10.75;2.72;;;10.10;99.90;;;;;;5119583;28;20325;-68
2020/12/18 04:16:14;;;;;;;;;;;9.90;99.90;;;;;;5120467;28;20019;-68
2020/12/18 04:18:40;;;;;;;10.85;3.28;;;10.00;99.90;;;;;;5119715;28;19920;-68
2020/12/18 04:21:06;;;;;;;12.23;2.80;;;10.10;99.90;;;;;;5123461;27;20023;-68
2020/12/18 04:23:32;;;;;;;;;;;9.90;99.90;;;;;;5123541;27;20035;-68
2020/12/18 04:25:57;;;;;;;8.70;2.72;;;10.00;99.90;;;;;;5119878;27;19939;-68
2020/12/18 04:28:23;;;;;;;10.70;3.15;;;9.90;99.90;;;;;;5119242;28;20031;-68
2020/12/18 04:30:50;;;;;;;;;;;9.90;99.90;;;;;;5120159;27;20016;-68
2020/12/18 04:33:16;;;;;;;9.73;2.67;;;10.00;99.90;;;;;;5119443;28;20345;-68
2020/12/18 04:35:42;;;;;;;13.40;3.08;;;9.70;99.90;;;;;;5119936;28;20024;-68
2020/12/18 04:38:12;;;;;;;;;;;9.70;99.90;;;;;;5119867;28;20031;-68
2020/12/18 04:40:40;;;;;;;17.23;3.70;;;9.70;99.90;;;;;;5119757;28;19910;-68
2020/12/18 04:43:06;;;;;;;8.75;2.33;;;9.70;99.90;;;;;;5119020;28;20023;-68
2020/12/18 04:45:32;;;;;;;10.60;2.60;;;9.70;99.90;;;;;;5119388;28;20055;-68
2020/12/18 04:47:58;;;;;;;;;;;9.70;99.90;;;;;;5119598;28;20031;-68
2020/12/18 04:50:25;;;;;;;5.38;2.50;;;9.90;99.90;;;;;;5119382;28;19910;-68
2020/12/18 04:52:57;;;;;;;10.63;2.58;;;9.70;99.90;;;;;;5119057;28;20080;-68
2020/12/18 04:55:27;;;;;;;12.27;3.53;;;9.70;99.90;;;;;;5119647;27;20061;-68
2020/12/18 04:57:54;;;;;;;10.40;3.45;;;9.70;99.90;;;;;;5118626;28;20039;-68
2020/12/18 05:00:21;;;;;;;10.82;2.33;;;9.80;99.90;;;;;;5119238;28;20023;-68
2020/12/18 05:02:47;;;;;;;8.85;2.70;;;9.70;99.90;;;;;;5118944;28;20566;-68
2020/12/18 05:05:13;;;;;;;10.50;3.70;;;9.70;99.90;;;;;;5119208;28;20027;-68
2020/12/18 05:07:39;;;;;;;15.60;3.30;;;9.70;99.90;;;;;;5118912;28;20075;-68
2020/12/18 05:10:08;;;;;;;;;;;9.80;99.90;;;;;;5117977;28;20519;-68
2020/12/18 05:12:35;;;;;;;8.77;2.70;;;9.80;99.90;;;;;;5118480;28;19998;-68
2020/12/18 05:15:05;;;;;;;6.60;2.83;;;9.80;99.90;;;;;;5118222;28;20498;-68
2020/12/18 05:17:31;;;;;;;15.23;3.30;;;9.90;99.90;;;;;;5104370;28;20077;-68
2020/12/18 05:19:58;;;;;;;7.75;2.47;;;9.80;99.90;;;;;;5118402;28;20051;-68
2020/12/18 05:22:25;;;;;;;14.50;2.97;;;9.80;99.90;;;;;;5125580;27;20032;-68
2020/12/18 05:24:53;;;;;;;15.52;3.72;;;9.70;99.90;;;;;;5118683;28;20498;-68
2020/12/18 05:27:23;;;;;;;8.32;2.65;;;9.90;99.90;;;;;;5118603;28;20027;-68
2020/12/18 05:29:50;;;;;;;9.48;2.88;;;9.80;99.90;;;;;;5118325;28;20499;-68
2020/12/18 05:32:16;;;;;;;12.48;2.63;;;9.80;99.90;;;;;;5118639;28;20089;-68
2020/12/18 05:34:45;;;;;;;;;;;9.80;99.90;;;;;;5118865;28;20016;-68
2020/12/18 05:37:14;;;;;;;14.55;3.70;;;9.90;99.90;;;;;;5118523;28;19904;-68
2020/12/18 05:39:43;;;;;;;10.18;2.60;;;9.90;99.90;;;;;;5118223;28;20020;-68
2020/12/18 05:42:09;;;;;;;12.07;3.10;;;9.90;99.90;;;;;;5118259;28;20079;-68
2020/12/18 05:44:35;;;;;;;10.00;3.38;;;9.90;99.90;;;;;;5118079;28;20080;-68
2020/12/18 05:47:10;;;;;;;;;;;9.80;99.90;;;;;;5118715;28;20023;-68
2020/12/18 05:49:38;;;;;;;13.95;3.20;;;9.80;99.90;;;;;;5117968;28;19907;-68
2020/12/18 05:52:17;;;;;;;19.92;4.30;;;9.80;99.90;;;;;;5118257;28;20379;-68
2020/12/18 05:54:43;;;;;;;11.77;3.47;;;9.80;99.90;;;;;;5118390;28;20086;-68
2020/12/18 05:57:15;;;;;;;13.30;4.10;;;10.10;99.90;;;;;;5117958;28;20035;-68
2020/12/18 05:59:42;;;;;;;17.25;4.78;;;10.00;99.90;;;;;;5117947;28;20067;-68
2020/12/18 06:02:13;;;;;;;13.77;4.60;;;10.00;99.90;;;;;;5117828;28;20032;-68
2020/12/18 06:04:40;;;;;;;15.98;3.40;;;10.10;99.90;;;;;;5118114;28;20020;-68
2020/12/18 06:07:06;;;;;;;16.48;3.80;;;10.00;99.90;;;;;;5117875;28;20024;-68
2020/12/18 06:09:34;;;;;;;14.93;4.85;;;10.20;99.90;;;;;;5117888;28;20047;-68
2020/12/18 06:12:05;;;;;;;16.10;3.97;;;10.30;99.90;;;;;;5117513;28;20032;-68
2020/12/18 06:14:32;;;;;;;18.40;6.55;;;10.20;99.90;;;;;;5117972;28;20016;-68
2020/12/18 06:17:09;;;;;;;18.10;5.40;;;10.30;99.90;;;;;;5117925;28;20023;-68
2020/12/18 06:19:43;;;;;;;;;;;10.30;99.90;;;;;;5118051;28;20498;-68
2020/12/18 06:22:11;;;;;;;18.02;4.07;;;10.30;99.90;;;;;;5125075;28;19911;-68
2020/12/18 06:24:42;;;;;;;18.02;5.38;;;10.50;99.90;;;;;;5118897;28;20051;-68
2020/12/18 06:27:11;;;;;;;20.63;4.47;;;10.60;99.90;;;;;;5121894;28;20041;-68
2020/12/18 06:29:37;;;;;;;22.00;4.53;;;10.50;99.90;;;;;;5121866;28;20068;-68
2020/12/18 06:32:26;;;;;;;19.80;4.50;;;10.50;99.90;;;;;;5121802;27;20027;-68
2020/12/18 06:34:53;;;;;;;18.92;5.15;;;10.50;99.90;;;;;;5121760;28;20577;-68
2020/12/18 06:37:27;;;;;;;23.20;5.40;;;10.60;99.90;;;;;;5122219;28;20016;-68
2020/12/18 06:39:53;;;;;;;17.45;5.20;;;10.60;99.90;;;;;;5121737;28;20031;-68
2020/12/18 06:42:27;;;;;;;27.73;4.28;;;10.80;99.90;;;;;;5121709;28;20028;-68
2020/12/18 06:44:55;;;;;;;12.82;4.55;;;10.80;99.90;;;;;;5121515;28;20019;-68
2020/12/18 06:47:31;;;;;;;18.35;5.07;;;10.70;99.90;;;;;;5121624;28;20372;-68
2020/12/18 06:50:01;;;;;;;;;;;10.70;99.90;;;;;;5122317;28;20051;-68
2020/12/18 06:52:48;;;;;;;14.63;5.43;;;10.70;99.90;;;;;;5121633;28;19947;-68
2020/12/18 06:55:14;;;;;;;;;;;10.70;99.90;;;;;;5122286;28;20499;-68
2020/12/18 06:57:40;;;;;;;19.80;5.33;;;10.80;99.90;;;;;;5121131;28;19955;-68
2020/12/18 07:00:24;;;;;;;18.58;5.65;;;10.80;99.90;;;;;;5121633;28;20038;-68
2020/12/18 07:02:50;;;;;;;14.68;4.93;;;10.70;99.90;;;;;;5121398;28;20023;-68
2020/12/18 07:05:42;;;;;;;18.00;5.53;;;10.80;99.90;;;;;;5121470;28;20020;-68
2020/12/18 07:08:10;;;;;;;18.58;5.40;;;10.70;99.90;;;;;;5121504;28;20020;-68
2020/12/18 07:10:47;;;;;;;12.60;3.80;;;10.80;99.90;;;;;;5119829;28;20035;-68
2020/12/18 07:13:15;;;;;;;13.68;3.90;;;10.80;99.90;;;;;;5120896;28;20494;-68
2020/12/18 07:15:44;;;;;;;12.85;3.45;;;10.90;99.90;;;;;;5121173;27;20066;-68
2020/12/18 07:18:31;;;;;;;14.15;4.63;;;11.00;99.90;;;;;;5120959;28;20419;-68
2020/12/18 07:21:00;;;;;;;11.88;3.72;;;10.90;99.90;;;;;;5123445;27;20378;-68
2020/12/18 07:23:27;;;;;;;14.98;4.78;;;10.90;99.90;;;;;;5125113;27;20019;-68
2020/12/18 07:25:55;;;;;;;15.63;3.92;;;10.90;99.90;;;;;;5121184;28;20023;-68
2020/12/18 07:28:22;;;;;;;14.50;3.60;;;11.00;99.90;;;;;;5120379;28;20020;-68
2020/12/18 07:30:49;;;;;;;10.18;3.25;;;11.10;99.90;;;;;;5121113;28;20020;-68
2020/12/18 07:33:18;;;;;;;12.13;3.75;;;11.00;99.90;;;;;;5120644;28;20024;-68
2020/12/18 07:35:49;;;;;;;9.43;3.22;;;11.10;99.90;;;;;;5120789;28;20027;-68
2020/12/18 07:38:22;;;;;;;7.93;4.05;;;11.00;99.90;;;;;;5120105;28;20551;-68
2020/12/18 07:40:54;;;;;;;11.60;3.78;;;11.00;99.90;;;;;;5120698;28;20030;-68
2020/12/18 07:43:24;;;;;;;14.07;4.90;;;11.10;99.90;;;;;;5120247;28;20832;-68
2020/12/18 07:45:53;;;;;;;12.55;4.70;;;11.10;99.90;;;;;;5120626;28;20024;-68
2020/12/18 07:48:22;;;;;;;11.15;4.22;;;11.10;99.90;;;;;;5120555;28;20024;-68
2020/12/18 07:50:58;;;;;;;13.60;4.10;;;10.70;99.90;;;;;;5120348;28;20016;-68
2020/12/18 07:53:25;;;;;;;19.17;5.07;;;11.10;99.90;;;;;;5120470;28;20016;-68
2020/12/18 07:56:19;;;;;;;16.38;4.57;;;11.10;99.90;;;;;;5120236;28;20066;-68
2020/12/18 07:58:50;;;;;;;18.92;5.38;;;11.00;99.90;;;;;;5114997;28;20059;-68
2020/12/18 08:01:27;;;;;;;13.85;4.88;;;11.00;99.90;;;;;;5120265;28;20063;-68
2020/12/18 08:03:58;;;;;;;14.88;5.45;;;11.00;99.90;;;;;;5120342;28;20101;-68
2020/12/18 08:06:27;;;;;;;22.33;5.55;;;11.00;99.90;;;;;;5120438;28;20098;-68
2020/12/18 08:08:59;;;;;;;12.15;4.07;;;11.10;99.90;;;;;;5119911;27;20024;-68
2020/12/18 08:11:30;;;;;;;19.80;4.20;;;11.00;99.90;;;;;;5120071;28;20476;-68
2020/12/18 08:13:56;;;;;;;16.75;6.68;;;11.00;99.90;;;;;;5119839;28;20040;-68
2020/12/18 08:16:25;;;;;;;11.52;4.20;;;11.00;99.90;;;;;;5119986;28;20026;-68
2020/12/18 08:19:02;;;;;;;15.68;4.53;;;10.90;99.90;;;;;;5119621;28;20107;-68
2020/12/18 08:21:32;;;;;;;14.07;4.03;;;11.00;99.90;;;;;;5126211;27;20044;-68
2020/12/18 08:24:09;;;;;;;11.45;4.05;;;10.90;99.90;;;;;;5106513;28;20023;-68
2020/12/18 08:26:38;;;;;;;17.60;4.22;;;11.00;99.90;;;;;;5119575;28;20105;-68
2020/12/18 08:29:05;;;;;;;9.95;3.85;;;11.00;99.90;;;;;;5119627;28;20042;-68
2020/12/18 08:31:34;;;;;;;8.50;3.38;;;11.00;99.90;;;;;;5119588;28;20051;-68
2020/12/18 08:34:10;;;;;;;12.98;3.90;;;10.90;99.90;;;;;;5119576;28;20014;-68
2020/12/18 08:36:45;;;;;;;13.27;4.07;;;11.00;99.90;;;;;;5118406;28;20027;-68
2020/12/18 08:39:13;;;;;;;13.00;3.90;;;11.00;99.90;;;;;;5119648;27;20597;-68
2020/12/18 08:41:51;;;;;;;11.55;3.92;;;11.00;99.90;;;;;;5119187;28;20535;-68
2020/12/18 08:44:19;;;;;;;16.80;4.38;;;11.00;99.90;;;;;;5119290;28;20019;-68
2020/12/18 08:46:46;;;;;;;8.13;3.55;;;10.90;99.90;;;;;;5119899;28;20117;-68
2020/12/18 08:49:17;;;;;;;15.20;4.45;;;11.00;99.90;;;;;;5118010;27;20027;-68
2020/12/18 08:51:44;;;;;;;14.75;4.75;;;10.90;99.90;;;;;;5119428;28;20028;-68
2020/12/18 08:54:27;;;;;;;15.82;4.50;;;11.00;99.90;;;;;;5119170;28;20085;-68
2020/12/18 08:57:25;;;;;;;17.38;4.80;;;11.10;99.90;;;;;;5119207;28;20054;-69
2020/12/18 08:59:58;;;;;;;9.73;4.10;;;11.10;99.90;;;;;;5119288;27;20475;-68
2020/12/18 09:02:26;;;;;;;10.02;4.40;;;11.00;99.90;;;;;;5117669;28;20035;-68
2020/12/18 09:05:27;;;;;;;16.73;4.90;;;11.10;99.90;;;;;;5119013;28;20087;-68
2020/12/18 09:08:03;;;;;;;18.67;6.15;;;11.20;99.90;;;;;;5028063;28;20069;-69
2020/12/18 09:10:36;;;;;;;15.18;4.50;;;11.20;99.90;;;;;;5104623;28;20063;-69
2020/12/18 09:13:23;;;;;;;12.98;4.70;;;11.10;99.90;;;;;;5117182;28;20031;-68
2020/12/18 09:16:10;;;;;;;10.57;3.85;;;11.30;99.90;;;;;;5118714;28;20419;-69
2020/12/18 09:18:44;;;;;;;10.63;4.18;;;11.30;99.90;;;;;;5118573;28;20545;-69
2020/12/18 09:21:12;;;;;;;12.35;4.30;;;11.30;99.90;;;;;;5122869;27;20421;-69
2020/12/18 09:23:38;;;;;;;14.23;3.50;;;11.30;99.90;;;;;;5121318;27;20020;-68
2020/12/18 09:26:04;;;;;;;14.32;3.97;;;11.30;99.90;;;;;;5118625;28;20024;-68
2020/12/18 09:28:41;;;;;;;11.40;4.07;;;11.20;99.90;;;;;;5118107;28;20096;-68
2020/12/18 09:31:07;;;;;;;;;;;11.30;99.90;;;;;;5119181;28;20030;-69
2020/12/18 09:33:37;;;;;;;14.80;4.85;;;11.30;99.90;;;;;;5118352;28;20333;-69
2020/12/18 09:36:07;;;;;;;19.83;6.55;;;11.30;99.90;;;;;;5118474;28;20051;-68
2020/12/18 09:38:35;;;;;;;16.75;4.65;;;11.50;99.90;;;;;;5118302;28;20047;-69
2020/12/18 09:41:06;;;;;;;12.25;4.70;;;11.50;99.90;;;;;;5118287;28;20027;-69
2020/12/18 09:43:32;;;;;;;24.50;4.88;;;11.50;99.90;;;;;;5116869;28;20668;-69
2020/12/18 09:45:58;;;;;;;22.58;5.20;;;11.40;99.90;;;;;;5118278;28;20066;-68
2020/12/18 09:48:26;;;;;;;8.10;5.13;;;11.30;99.90;;;;;;5118271;28;20024;-68
2020/12/18 09:50:56;;;;;;;11.13;4.95;;;11.40;99.90;;;;;;5118113;28;20098;-69
2020/12/18 09:53:23;;;;;;;19.67;4.78;;;11.40;99.90;;;;;;5118205;28;20499;-69
2020/12/18 09:55:49;;;;;;;8.50;4.10;;;11.50;99.90;;;;;;5118017;28;20027;-69
2020/12/18 09:58:15;;;;;;;9.02;3.67;;;11.50;99.90;;;;;;5117833;28;20074;-69
2020/12/18 10:00:41;;;;;;;14.50;5.30;;;11.60;99.90;;;;;;5117736;28;20024;-69
2020/12/18 10:03:07;;;;;;;17.67;5.03;;;11.50;99.90;;;;;;5118069;28;20026;-69
2020/12/18 10:05:33;;;;;;;10.85;4.28;;;11.60;99.90;;;;;;5117910;28;20020;-69
2020/12/18 10:07:59;;;;;;;15.75;4.65;;;11.70;99.90;;;;;;5118029;28;20027;-68
2020/12/18 10:10:27;;;;;;;12.13;4.72;;;11.70;99.90;;;;;;5116488;28;20028;-69
2020/12/18 10:12:54;;;;;;;19.50;5.95;;;11.70;99.90;;;;;;5117624;28;20523;-69
2020/12/18 10:15:20;;;;;;;13.73;4.72;;;11.80;99.90;;;;;;5117769;28;20024;-69
2020/12/18 10:17:46;;;;;;;14.45;4.60;;;11.80;99.90;;;;;;5117933;28;20107;-69
2020/12/18 10:20:14;;;;;;;14.75;5.18;;;12.00;99.90;;;;;;5117554;28;20055;-69
2020/12/18 10:22:40;;;;;;;16.55;5.03;;;11.90;99.90;;;;;;5125021;28;20092;-68
2020/12/18 10:25:06;;;;;;;12.77;4.45;;;12.00;99.90;;;;;;5117953;28;20042;-69
2020/12/18 10:27:31;;;;;;;14.20;4.35;;;11.90;99.90;;;;;;5117374;28;20035;-69
2020/12/18 10:29:57;;;;;;;9.48;4.10;;;12.10;99.90;;;;;;5117551;28;20030;-69
2020/12/18 10:32:29;;;;;;;14.88;4.60;;;12.10;99.90;;;;;;5117997;28;20050;-69
2020/12/18 10:34:55;;;;;;;15.55;4.78;;;12.00;99.90;;;;;;5117581;28;20020;-69
2020/12/18 10:37:24;;;;;;;13.13;5.07;;;12.10;99.90;;;;;;5117680;28;20106;-69
2020/12/18 10:39:50;;;;;;;12.27;4.55;;;12.10;99.90;;;;;;5117474;28;20488;-69
2020/12/18 10:42:16;;;;;;;12.63;5.25;;;12.00;99.90;;;;;;5117654;28;20069;-69
2020/12/18 10:44:42;;;;;;;11.15;4.97;;;12.10;99.90;;;;;;5117678;28;20110;-69
2020/12/18 10:47:08;;;;;;;16.33;5.80;;;12.10;99.90;;;;;;5117765;28;20100;-69
2020/12/18 10:49:34;;;;;;;15.65;6.35;;;12.00;99.90;;;;;;5117666;28;20586;-69
2020/12/18 10:52:01;;;;;;;13.20;4.22;;;12.10;99.90;;;;;;5117637;28;20051;-69
2020/12/18 10:54:27;;;;;;;15.88;5.30;;;12.10;99.90;;;;;;5117473;28;20390;-69
2020/12/18 10:56:55;;;;;;;14.52;4.68;;;12.00;99.90;;;;;;5117756;28;20375;-69
2020/12/18 10:59:22;;;;;;;11.60;4.53;;;12.10;99.90;;;;;;5117347;28;20024;-68
2020/12/18 11:01:52;;;;;;;16.90;5.38;;;12.00;99.90;;;;;;5116155;28;20035;-69
2020/12/18 11:04:18;;;;;;;13.20;5.25;;;11.90;99.90;;;;;;5117565;28;20031;-69
2020/12/18 11:06:44;;;;;;;16.25;5.55;;;11.90;99.90;;;;;;5117676;28;20554;-69
2020/12/18 11:09:10;;;;;;;15.80;5.90;;;12.00;99.90;;;;;;5117407;28;20495;-68
2020/12/18 11:11:36;;;;;;;15.05;5.07;;;11.90;99.90;;;;;;5117743;28;20495;-69
2020/12/18 11:14:02;;;;;;;19.75;6.32;;;12.00;99.90;;;;;;5121084;28;20016;-69
2020/12/18 11:16:28;;;;;;;15.40;6.15;;;12.00;99.90;;;;;;5121356;28;20149;-69
2020/12/18 11:18:54;;;;;;;22.25;5.93;;;12.10;99.90;;;;;;5120907;28;20047;-69
2020/12/18 11:21:20;;;;;;;14.23;4.78;;;12.10;99.90;;;;;;5126444;27;20031;-69
2020/12/18 11:23:45;;;;;;;15.18;5.88;;;12.10;99.90;;;;;;5122748;27;20076;-69
2020/12/18 11:26:11;;;;;;;13.23;5.35;;;12.10;99.90;;;;;;5120729;28;20416;-69
2020/12/18 11:28:38;;;;;;;14.18;6.63;;;12.10;99.90;;;;;;5120681;28;20098;-69
2020/12/18 11:31:05;;;;;;;14.05;5.38;;;12.20;99.90;;;;;;5120963;28;20051;-69
2020/12/18 11:33:31;;;;;;;14.25;4.90;;;12.20;99.90;;;;;;5120717;28;20058;-69
2020/12/18 11:35:57;;;;;;;12.98;6.15;;;12.30;99.90;;;;;;5121224;28;20479;-69
2020/12/18 11:38:23;;;;;;;14.13;4.90;;;12.40;99.90;;;;;;5120830;28;20019;-69
2020/12/18 11:40:49;;;;;;;15.52;4.97;;;12.30;99.90;;;;;;5120807;28;20029;-69
2020/12/18 11:43:14;;;;;;;14.90;4.90;;;12.30;99.90;;;;;;5120375;28;20020;-69
2020/12/18 11:45:40;;;;;;;13.48;4.40;;;12.30;99.90;;;;;;5120593;28;20095;-69
2020/12/18 11:48:06;;;;;;;11.27;4.10;;;12.40;99.90;;;;;;5120641;28;20023;-69
2020/12/18 11:50:32;;;;;;;11.02;3.83;;;12.40;99.90;;;;;;5120474;28;20483;-69
2020/12/18 11:52:59;;;;;;;18.55;5.20;;;12.40;99.90;;;;;;5120606;28;20023;-69
2020/12/18 11:55:26;;;;;;;10.32;4.50;;;12.30;99.90;;;;;;5120347;28;20399;-69
2020/12/18 11:57:52;;;;;;;10.40;4.53;;;12.40;99.90;;;;;;5119908;28;20023;-69
2020/12/18 12:00:20;;;;;;;7.93;3.50;;;12.30;99.90;;;;;;5120329;28;20034;-69
2020/12/18 12:02:48;;;;;;;10.77;4.25;;;12.30;99.90;;;;;;5120182;28;20048;-69
2020/12/18 12:05:15;;;;;;;11.77;4.90;;;12.40;99.90;;;;;;5118896;28;20036;-69
2020/12/18 12:07:41;;;;;;;14.57;5.43;;;12.30;99.90;;;;;;5120252;28;20024;-69
2020/12/18 12:10:07;;;;;;;18.05;4.53;;;12.30;99.90;;;;;;5118701;28;20038;-69
2020/12/18 12:12:33;;;;;;;9.55;4.18;;;12.30;99.90;;;;;;5119502;28;20046;-69
2020/12/18 12:14:58;;;;;;;11.65;4.22;;;12.30;99.90;;;;;;5120252;28;20433;-69
2020/12/18 12:17:24;;;;;;;15.57;4.97;;;12.30;99.90;;;;;;5119980;27;20073;-69
2020/12/18 12:19:50;;;;;;;10.85;6.18;;;12.30;99.90;;;;;;5119819;28;20043;-69
2020/12/18 12:22:16;;;;;;;14.57;4.10;;;12.30;99.90;;;;;;5126409;27;20027;-69
2020/12/18 12:24:42;;;;;;;7.25;4.05;;;12.30;99.90;;;;;;5119991;28;20463;-69
2020/12/18 12:27:12;;;;;;;8.13;4.15;;;12.30;99.90;;;;;;5119614;28;20093;-69
2020/12/18 12:29:38;;;;;;;9.18;4.28;;;12.30;99.90;;;;;;5119562;28;20117;-69
2020/12/18 12:32:07;;;;;;;10.25;4.05;;;12.10;99.90;;;;;;5119700;28;20349;-69
2020/12/18 12:34:33;;;;;;;10.30;4.53;;;12.10;99.90;;;;;;5119592;28;20098;-69
2020/12/18 12:37:00;;;;;;;7.25;4.80;;;12.20;99.90;;;;;;5118440;28;20015;-69
2020/12/18 12:39:26;;;;;;;6.13;4.00;;;12.10;99.90;;;;;;5118129;28;20027;-69
2020/12/18 12:41:52;;;;;;;11.25;4.00;;;12.10;99.90;;;;;;5119365;28;20028;-69
2020/12/18 12:44:18;;;;;;;8.05;3.47;;;12.10;99.90;;;;;;5119238;28;20059;-69
2020/12/18 12:46:44;;;;;;;9.55;3.60;;;12.10;99.90;;;;;;5119478;28;20031;-69
2020/12/18 12:49:10;;;;;;;6.65;3.90;;;12.00;99.90;;;;;;5119316;28;20507;-69
2020/12/18 12:51:37;;;;;;;7.68;3.88;;;12.10;99.90;;;;;;5118372;28;20440;-69
2020/12/18 12:54:03;;;;;;;8.10;3.33;;;12.00;99.90;;;;;;5119312;28;20023;-69
2020/12/18 12:56:29;;;;;;;12.95;3.83;;;12.00;99.90;;;;;;5118982;28;20016;-69
2020/12/18 12:58:55;;;;;;;10.00;4.55;;;12.10;99.90;;;;;;5118997;28;20080;-69
2020/12/18 13:01:20;;;;;;;7.28;3.67;;;11.90;99.90;;;;;;5119246;28;20045;-69